sensor_id;sensor_type;location;lat;lon;timestamp;pressure;altitude;pressure_sealevel;temperature;humidity
78170;BME280;67412;49.892;14.490;2023-09-19T00:01:28;96677.47;;;15.53;100.00
78170;BME280;67412;49.892;14.490;2023-09-19T00:03:55;96678.41;;;15.52;100.00
78170;BME280;67412;49.892;14.490;2023-09-19T00:06:22;96677.78;;;15.45;100.00
78170;BME280;67412;49.892;14.490;2023-09-19T00:08:52;96672.22;;;15.34;100.00
78170;BME280;67412;49.892;14.490;2023-09-19T00:11:17;96681.66;;;15.35;100.00
78170;BME280;67412;49.892;14.490;2023-09-19T00:13:43;96684.31;;;15.33;100.00
78170;BME280;67412;49.892;14.490;2023-09-19T00:16:11;96684.91;;;15.40;100.00
78170;BME280;67412;49.892;14.490;2023-09-19T00:18:38;96686.53;;;15.42;100.00
78170;BME280;67412;49.892;14.490;2023-09-19T00:21:03;96692.72;;;15.38;100.00
78170;BME280;67412;49.892;14.490;2023-09-19T00:23:30;96696.22;;;15.37;100.00
78170;BME280;67412;49.892;14.490;2023-09-19T00:25:59;96702.56;;;15.30;100.00
78170;BME280;67412;49.892;14.490;2023-09-19T00:28:26;96692.06;;;15.33;100.00
78170;BME280;67412;49.892;14.490;2023-09-19T00:30:51;96703.50;;;15.29;100.00
78170;BME280;67412;49.892;14.490;2023-09-19T00:33:17;96703.59;;;15.26;100.00
78170;BME280;67412;49.892;14.490;2023-09-19T00:35:51;96702.97;;;15.21;100.00
78170;BME280;67412;49.892;14.490;2023-09-19T00:38:17;96705.69;;;15.18;100.00
78170;BME280;67412;49.892;14.490;2023-09-19T00:40:45;96706.06;;;15.09;100.00
78170;BME280;67412;49.892;14.490;2023-09-19T00:43:10;96717.44;;;15.05;100.00
78170;BME280;67412;49.892;14.490;2023-09-19T00:45:37;96709.75;;;15.04;100.00
78170;BME280;67412;49.892;14.490;2023-09-19T00:48:04;96710.22;;;15.13;100.00
78170;BME280;67412;49.892;14.490;2023-09-19T00:50:32;96707.75;;;15.10;100.00
78170;BME280;67412;49.892;14.490;2023-09-19T00:52:58;96710.41;;;15.09;100.00
78170;BME280;67412;49.892;14.490;2023-09-19T00:55:25;96695.59;;;15.12;100.00
78170;BME280;67412;49.892;14.490;2023-09-19T00:57:50;96708.38;;;15.15;100.00
78170;BME280;67412;49.892;14.490;2023-09-19T01:00:16;96710.22;;;15.13;100.00
78170;BME280;67412;49.892;14.490;2023-09-19T01:02:44;96707.69;;;15.12;100.00
78170;BME280;67412;49.892;14.490;2023-09-19T01:05:09;96710.75;;;15.21;100.00
78170;BME280;67412;49.892;14.490;2023-09-19T01:07:36;96702.91;;;15.23;100.00
78170;BME280;67412;49.892;14.490;2023-09-19T01:10:06;96704.00;;;15.17;100.00
78170;BME280;67412;49.892;14.490;2023-09-19T01:18:25;96697.94;;;15.18;100.00
78170;BME280;67412;49.892;14.490;2023-09-19T01:21:03;96703.44;;;15.11;100.00
78170;BME280;67412;49.892;14.490;2023-09-19T01:29:16;96701.25;;;15.00;100.00
78170;BME280;67412;49.892;14.490;2023-09-19T01:31:44;96720.16;;;15.02;100.00
78170;BME280;67412;49.892;14.490;2023-09-19T01:34:10;96721.16;;;14.99;100.00
78170;BME280;67412;49.892;14.490;2023-09-19T01:36:37;96719.28;;;15.03;100.00
78170;BME280;67412;49.892;14.490;2023-09-19T01:39:09;96719.00;;;15.09;100.00
78170;BME280;67412;49.892;14.490;2023-09-19T01:44:30;96717.13;;;15.13;100.00
78170;BME280;67412;49.892;14.490;2023-09-19T01:47:00;96714.69;;;15.10;100.00
78170;BME280;67412;49.892;14.490;2023-09-19T01:49:37;96721.53;;;15.11;100.00
78170;BME280;67412;49.892;14.490;2023-09-19T01:52:14;96714.81;;;15.07;100.00
78170;BME280;67412;49.892;14.490;2023-09-19T01:54:52;96715.72;;;15.06;100.00
78170;BME280;67412;49.892;14.490;2023-09-19T01:57:40;96719.53;;;15.17;100.00
78170;BME280;67412;49.892;14.490;2023-09-19T02:00:10;96712.28;;;15.25;100.00
78170;BME280;67412;49.892;14.490;2023-09-19T02:02:42;96717.97;;;15.33;100.00
78170;BME280;67412;49.892;14.490;2023-09-19T02:05:09;96714.22;;;15.40;100.00
78170;BME280;67412;49.892;14.490;2023-09-19T02:07:35;96711.56;;;15.42;100.00
78170;BME280;67412;49.892;14.490;2023-09-19T02:10:04;96717.63;;;15.41;100.00
78170;BME280;67412;49.892;14.490;2023-09-19T02:12:31;96717.59;;;15.42;100.00
78170;BME280;67412;49.892;14.490;2023-09-19T02:14:57;96720.31;;;15.39;100.00
78170;BME280;67412;49.892;14.490;2023-09-19T02:17:24;96724.59;;;15.40;100.00
78170;BME280;67412;49.892;14.490;2023-09-19T02:19:52;96713.13;;;15.46;100.00
78170;BME280;67412;49.892;14.490;2023-09-19T02:22:17;96710.53;;;15.46;100.00
78170;BME280;67412;49.892;14.490;2023-09-19T02:24:43;96711.25;;;15.50;100.00
78170;BME280;67412;49.892;14.490;2023-09-19T02:27:08;96713.06;;;15.47;100.00
78170;BME280;67412;49.892;14.490;2023-09-19T02:29:33;96709.63;;;15.47;100.00
78170;BME280;67412;49.892;14.490;2023-09-19T02:32:02;96713.91;;;15.48;100.00
78170;BME280;67412;49.892;14.490;2023-09-19T02:34:27;96708.53;;;15.53;100.00
78170;BME280;67412;49.892;14.490;2023-09-19T02:36:53;96706.09;;;15.50;100.00
78170;BME280;67412;49.892;14.490;2023-09-19T02:39:20;96708.66;;;15.50;100.00
78170;BME280;67412;49.892;14.490;2023-09-19T02:41:45;96700.84;;;15.51;100.00
78170;BME280;67412;49.892;14.490;2023-09-19T02:44:11;96708.47;;;15.54;100.00
78170;BME280;67412;49.892;14.490;2023-09-19T02:46:37;96710.22;;;15.54;100.00
78170;BME280;67412;49.892;14.490;2023-09-19T02:49:03;96702.13;;;15.61;99.90
78170;BME280;67412;49.892;14.490;2023-09-19T02:51:32;96708.00;;;15.65;99.28
78170;BME280;67412;49.892;14.490;2023-09-19T02:54:01;96710.94;;;15.57;100.00
78170;BME280;67412;49.892;14.490;2023-09-19T02:56:28;96709.38;;;15.53;100.00
78170;BME280;67412;49.892;14.490;2023-09-19T02:58:55;96714.84;;;15.45;100.00
78170;BME280;67412;49.892;14.490;2023-09-19T03:01:20;96708.06;;;15.43;100.00
78170;BME280;67412;49.892;14.490;2023-09-19T03:03:46;96714.22;;;15.40;100.00
78170;BME280;67412;49.892;14.490;2023-09-19T03:06:11;96712.47;;;15.41;100.00
78170;BME280;67412;49.892;14.490;2023-09-19T03:08:38;96724.31;;;15.46;100.00
78170;BME280;67412;49.892;14.490;2023-09-19T03:11:05;96718.28;;;15.46;100.00
78170;BME280;67412;49.892;14.490;2023-09-19T03:13:37;96702.75;;;15.46;100.00
78170;BME280;67412;49.892;14.490;2023-09-19T03:16:03;96700.44;;;15.40;100.00
78170;BME280;67412;49.892;14.490;2023-09-19T03:18:31;96714.41;;;15.36;100.00
78170;BME280;67412;49.892;14.490;2023-09-19T03:20:57;96706.53;;;15.39;100.00
78170;BME280;67412;49.892;14.490;2023-09-19T03:23:25;96706.53;;;15.39;100.00
78170;BME280;67412;49.892;14.490;2023-09-19T03:25:51;96707.41;;;15.38;100.00
78170;BME280;67412;49.892;14.490;2023-09-19T03:28:17;96702.66;;;15.49;100.00
78170;BME280;67412;49.892;14.490;2023-09-19T03:30:43;96703.59;;;15.46;100.00
78170;BME280;67412;49.892;14.490;2023-09-19T03:33:09;96703.09;;;15.38;100.00
78170;BME280;67412;49.892;14.490;2023-09-19T03:35:37;96696.34;;;15.34;100.00
78170;BME280;67412;49.892;14.490;2023-09-19T03:38:03;96708.41;;;15.35;100.00
78170;BME280;67412;49.892;14.490;2023-09-19T03:40:29;96699.47;;;15.42;100.00
78170;BME280;67412;49.892;14.490;2023-09-19T03:42:54;96693.94;;;15.52;100.00
78170;BME280;67412;49.892;14.490;2023-09-19T03:45:20;96690.72;;;15.45;100.00
78170;BME280;67412;49.892;14.490;2023-09-19T03:47:45;96690.66;;;15.46;100.00
78170;BME280;67412;49.892;14.490;2023-09-19T03:50:13;96692.41;;;15.46;100.00
78170;BME280;67412;49.892;14.490;2023-09-19T03:52:45;96687.13;;;15.49;100.00
78170;BME280;67412;49.892;14.490;2023-09-19T03:55:11;96691.34;;;15.52;100.00
78170;BME280;67412;49.892;14.490;2023-09-19T03:57:37;96694.84;;;15.51;100.00
78170;BME280;67412;49.892;14.490;2023-09-19T04:00:03;96689.50;;;15.54;100.00
78170;BME280;67412;49.892;14.490;2023-09-19T04:02:30;96694.63;;;15.55;100.00
78170;BME280;67412;49.892;14.490;2023-09-19T04:04:58;96702.13;;;15.61;100.00
78170;BME280;67412;49.892;14.490;2023-09-19T04:07:24;96696.19;;;15.59;100.00
78170;BME280;67412;49.892;14.490;2023-09-19T04:09:51;96703.63;;;15.67;100.00
78170;BME280;67412;49.892;14.490;2023-09-19T04:12:18;96701.94;;;15.66;100.00
78170;BME280;67412;49.892;14.490;2023-09-19T04:14:44;96710.53;;;15.66;99.91
78170;BME280;67412;49.892;14.490;2023-09-19T04:17:09;96713.03;;;15.68;100.00
78170;BME280;67412;49.892;14.490;2023-09-19T04:19:36;96726.63;;;15.73;99.37
78170;BME280;67412;49.892;14.490;2023-09-19T04:22:01;96725.78;;;15.72;99.45
78170;BME280;67412;49.892;14.490;2023-09-19T04:24:28;96728.59;;;15.68;99.34
78170;BME280;67412;49.892;14.490;2023-09-19T04:26:53;96734.75;;;15.65;99.37
78170;BME280;67412;49.892;14.490;2023-09-19T04:29:18;96733.00;;;15.66;99.00
78170;BME280;67412;49.892;14.490;2023-09-19T04:31:44;96739.97;;;15.64;99.26
78170;BME280;67412;49.892;14.490;2023-09-19T04:34:11;96737.66;;;15.58;99.15
78170;BME280;67412;49.892;14.490;2023-09-19T04:36:42;96751.50;;;15.57;99.39
78170;BME280;67412;49.892;14.490;2023-09-19T04:39:08;96745.63;;;15.53;99.76
78170;BME280;67412;49.892;14.490;2023-09-19T04:41:35;96750.75;;;15.55;99.61
78170;BME280;67412;49.892;14.490;2023-09-19T04:44:04;96755.28;;;15.50;100.00
78170;BME280;67412;49.892;14.490;2023-09-19T04:46:30;96752.44;;;15.56;99.32
78170;BME280;67412;49.892;14.490;2023-09-19T04:48:55;96765.50;;;15.53;99.27
78170;BME280;67412;49.892;14.490;2023-09-19T04:51:20;96769.16;;;15.47;100.00
78170;BME280;67412;49.892;14.490;2023-09-19T04:53:46;96766.28;;;15.55;99.40
78170;BME280;67412;49.892;14.490;2023-09-19T04:56:11;96771.31;;;15.58;99.06
78170;BME280;67412;49.892;14.490;2023-09-19T04:58:36;96768.75;;;15.58;99.08
78170;BME280;67412;49.892;14.490;2023-09-19T05:01:02;96774.81;;;15.57;98.96
78170;BME280;67412;49.892;14.490;2023-09-19T05:03:28;96770.16;;;15.65;98.54
78170;BME280;67412;49.892;14.490;2023-09-19T05:05:53;96777.91;;;15.65;98.57
78170;BME280;67412;49.892;14.490;2023-09-19T05:08:19;96783.06;;;15.66;98.41
78170;BME280;67412;49.892;14.490;2023-09-19T05:10:44;96785.38;;;15.72;98.09
78170;BME280;67412;49.892;14.490;2023-09-19T05:13:10;96791.91;;;15.81;97.65
78170;BME280;67412;49.892;14.490;2023-09-19T05:15:37;96801.88;;;15.70;98.50
78170;BME280;67412;49.892;14.490;2023-09-19T05:18:02;96806.88;;;15.74;97.73
78170;BME280;67412;49.892;14.490;2023-09-19T05:20:28;96810.03;;;15.81;97.82
78170;BME280;67412;49.892;14.490;2023-09-19T05:23:06;96801.94;;;15.88;97.32
78170;BME280;67412;49.892;14.490;2023-09-19T05:25:38;96805.59;;;16.03;96.20
78170;BME280;67412;49.892;14.490;2023-09-19T05:28:04;96803.22;;;15.99;96.35
78170;BME280;67412;49.892;14.490;2023-09-19T05:30:31;96811.78;;;16.01;96.74
78170;BME280;67412;49.892;14.490;2023-09-19T05:32:57;96804.06;;;15.99;96.38
78170;BME280;67412;49.892;14.490;2023-09-19T05:35:22;96812.47;;;16.04;96.48
78170;BME280;67412;49.892;14.490;2023-09-19T05:37:50;96812.47;;;16.04;97.06
78170;BME280;67412;49.892;14.490;2023-09-19T05:40:19;96814.09;;;16.07;96.12
78170;BME280;67412;49.892;14.490;2023-09-19T05:42:45;96811.28;;;16.11;95.94
78170;BME280;67412;49.892;14.490;2023-09-19T05:45:11;96811.16;;;16.14;95.51
78170;BME280;67412;49.892;14.490;2023-09-19T05:47:38;96814.31;;;16.21;95.49
78170;BME280;67412;49.892;14.490;2023-09-19T05:50:03;96820.19;;;16.24;95.85
78170;BME280;67412;49.892;14.490;2023-09-19T05:52:30;96816.91;;;16.21;95.11
78170;BME280;67412;49.892;14.490;2023-09-19T05:54:55;96821.81;;;16.27;94.80
78170;BME280;67412;49.892;14.490;2023-09-19T05:57:21;96815.72;;;16.28;94.95
78170;BME280;67412;49.892;14.490;2023-09-19T05:59:47;96824.06;;;16.34;94.12
78170;BME280;67412;49.892;14.490;2023-09-19T06:02:14;96830.22;;;16.32;94.06
78170;BME280;67412;49.892;14.490;2023-09-19T06:04:40;96828.19;;;16.38;94.04
78170;BME280;67412;49.892;14.490;2023-09-19T06:07:06;96833.38;;;16.38;94.55
78170;BME280;67412;49.892;14.490;2023-09-19T06:09:31;96835.84;;;16.41;94.05
78170;BME280;67412;49.892;14.490;2023-09-19T06:11:57;96844.25;;;16.47;93.68
78170;BME280;67412;49.892;14.490;2023-09-19T06:14:23;96833.81;;;16.48;93.83
78170;BME280;67412;49.892;14.490;2023-09-19T06:16:49;96847.53;;;16.50;93.70
78170;BME280;67412;49.892;14.490;2023-09-19T06:19:15;96852.53;;;16.55;93.50
78170;BME280;67412;49.892;14.490;2023-09-19T06:21:40;96854.16;;;16.57;93.01
78170;BME280;67412;49.892;14.490;2023-09-19T06:24:06;96858.31;;;16.61;92.66
78170;BME280;67412;49.892;14.490;2023-09-19T06:26:32;96859.22;;;16.60;92.87
78170;BME280;67412;49.892;14.490;2023-09-19T06:28:57;96858.94;;;16.66;92.58
78170;BME280;67412;49.892;14.490;2023-09-19T06:31:24;96864.06;;;16.68;92.39
78170;BME280;67412;49.892;14.490;2023-09-19T06:33:51;96866.38;;;16.74;91.91
78170;BME280;67412;49.892;14.490;2023-09-19T06:36:17;96871.41;;;16.77;91.69
78170;BME280;67412;49.892;14.490;2023-09-19T06:38:42;96877.16;;;16.83;91.56
78170;BME280;67412;49.892;14.490;2023-09-19T06:41:08;96876.81;;;16.91;90.98
78170;BME280;67412;49.892;14.490;2023-09-19T06:43:34;96879.53;;;16.88;90.90
78170;BME280;67412;49.892;14.490;2023-09-19T06:46:01;96882.94;;;16.90;91.68
78170;BME280;67412;49.892;14.490;2023-09-19T06:48:26;96899.97;;;16.96;90.96
78170;BME280;67412;49.892;14.490;2023-09-19T06:50:56;96900.81;;;16.96;90.78
78170;BME280;67412;49.892;14.490;2023-09-19T06:53:23;96888.53;;;17.00;90.41
78170;BME280;67412;49.892;14.490;2023-09-19T06:55:52;96895.94;;;17.07;90.34
78170;BME280;67412;49.892;14.490;2023-09-19T06:58:18;96898.88;;;17.18;90.15
78170;BME280;67412;49.892;14.490;2023-09-19T07:00:45;96897.97;;;17.19;90.21
78170;BME280;67412;49.892;14.490;2023-09-19T07:03:13;96905.91;;;17.16;88.83
78170;BME280;67412;49.892;14.490;2023-09-19T07:05:39;96901.97;;;17.26;88.82
78170;BME280;67412;49.892;14.490;2023-09-19T07:08:06;96898.84;;;17.37;89.17
78170;BME280;67412;49.892;14.490;2023-09-19T07:10:32;96899.75;;;17.36;87.68
78170;BME280;67412;49.892;14.490;2023-09-19T07:13:05;96904.59;;;17.44;87.94
78170;BME280;67412;49.892;14.490;2023-09-19T07:15:38;96900.25;;;17.44;87.08
78170;BME280;67412;49.892;14.490;2023-09-19T07:18:05;96926.31;;;17.43;88.53
78170;BME280;67412;49.892;14.490;2023-09-19T07:20:32;96914.06;;;17.45;87.52
78170;BME280;67412;49.892;14.490;2023-09-19T07:23:01;96919.91;;;17.50;86.98
78170;BME280;67412;49.892;14.490;2023-09-19T07:25:27;96907.66;;;17.52;86.88
78170;BME280;67412;49.892;14.490;2023-09-19T07:27:55;96913.81;;;17.51;86.69
78170;BME280;67412;49.892;14.490;2023-09-19T07:30:20;96923.34;;;17.50;86.39
78170;BME280;67412;49.892;14.490;2023-09-19T07:32:46;96920.31;;;17.40;85.89
78170;BME280;67412;49.892;14.490;2023-09-19T07:35:11;96921.88;;;17.45;86.56
78170;BME280;67412;49.892;14.490;2023-09-19T07:37:37;96918.22;;;17.49;86.61
78170;BME280;67412;49.892;14.490;2023-09-19T07:40:03;96918.75;;;17.55;85.19
78170;BME280;67412;49.892;14.490;2023-09-19T07:42:35;96916.59;;;17.65;84.80
78170;BME280;67412;49.892;14.490;2023-09-19T07:45:02;96935.25;;;17.73;84.72
78170;BME280;67412;49.892;14.490;2023-09-19T07:47:28;96936.63;;;17.80;84.58
78170;BME280;67412;49.892;14.490;2023-09-19T07:49:55;96936.25;;;17.88;83.67
78170;BME280;67412;49.892;14.490;2023-09-19T07:52:20;96932.19;;;17.82;82.89
78170;BME280;67412;49.892;14.490;2023-09-19T07:54:47;96940.31;;;17.93;84.09
78170;BME280;67412;49.892;14.490;2023-09-19T07:57:15;96950.31;;;18.01;83.59
78170;BME280;67412;49.892;14.490;2023-09-19T07:59:41;96948.56;;;18.01;82.83
78170;BME280;67412;49.892;14.490;2023-09-19T08:02:10;96941.47;;;17.88;82.80
78170;BME280;67412;49.892;14.490;2023-09-19T08:04:44;96945.28;;;17.80;83.46
78170;BME280;67412;49.892;14.490;2023-09-19T08:07:12;96944.13;;;17.86;82.49
78170;BME280;67412;49.892;14.490;2023-09-19T08:09:38;96957.00;;;18.06;83.75
78170;BME280;67412;49.892;14.490;2023-09-19T08:12:05;96955.53;;;18.18;81.28
78170;BME280;67412;49.892;14.490;2023-09-19T08:14:30;96950.09;;;18.05;81.08
78170;BME280;67412;49.892;14.490;2023-09-19T08:16:57;96955.53;;;18.18;80.65
78170;BME280;67412;49.892;14.490;2023-09-19T08:19:23;96955.59;;;18.16;80.56
78170;BME280;67412;49.892;14.490;2023-09-19T08:21:55;96964.31;;;18.32;80.28
78170;BME280;67412;49.892;14.490;2023-09-19T08:24:24;96965.16;;;18.33;80.50
78170;BME280;67412;49.892;14.490;2023-09-19T08:26:49;96965.94;;;18.18;79.74
78170;BME280;67412;49.892;14.490;2023-09-19T08:29:16;96973.41;;;18.24;79.20
78170;BME280;67412;49.892;14.490;2023-09-19T08:31:42;96960.03;;;18.31;79.42
78170;BME280;67412;49.892;14.490;2023-09-19T08:34:08;96959.72;;;18.38;79.07
78170;BME280;67412;49.892;14.490;2023-09-19T08:36:33;96963.56;;;18.48;78.61
78170;BME280;67412;49.892;14.490;2023-09-19T08:39:00;96969.97;;;18.58;79.30
78170;BME280;67412;49.892;14.490;2023-09-19T08:41:25;96978.59;;;18.75;76.60
78170;BME280;67412;49.892;14.490;2023-09-19T08:43:51;96975.03;;;18.61;77.13
78170;BME280;67412;49.892;14.490;2023-09-19T08:46:18;96983.97;;;18.72;77.06
78170;BME280;67412;49.892;14.490;2023-09-19T08:48:58;96986.41;;;18.75;76.39
78170;BME280;67412;49.892;14.490;2023-09-19T08:51:36;96986.41;;;18.75;76.98
78170;BME280;67412;49.892;14.490;2023-09-19T08:54:07;96992.97;;;18.82;76.53
78170;BME280;67412;49.892;14.490;2023-09-19T08:56:35;96985.03;;;19.01;75.76
78170;BME280;67412;49.892;14.490;2023-09-19T08:59:04;96983.38;;;19.16;74.34
78170;BME280;67412;49.892;14.490;2023-09-19T09:01:33;96983.03;;;19.06;75.90
78170;BME280;67412;49.892;14.490;2023-09-19T09:03:59;96984.50;;;19.12;74.34
78170;BME280;67412;49.892;14.490;2023-09-19T09:06:26;96981.44;;;19.04;75.50
78170;BME280;67412;49.892;14.490;2023-09-19T09:08:53;96989.44;;;18.83;75.03
78170;BME280;67412;49.892;14.490;2023-09-19T09:11:19;96985.56;;;19.08;74.86
78170;BME280;67412;49.892;14.490;2023-09-19T09:13:45;96982.09;;;19.56;74.45
78170;BME280;67412;49.892;14.490;2023-09-19T09:16:12;96987.19;;;19.73;72.11
78170;BME280;67412;49.892;14.490;2023-09-19T09:18:38;96992.66;;;19.68;71.82
78170;BME280;67412;49.892;14.490;2023-09-19T09:21:04;96984.41;;;19.92;72.84
78170;BME280;67412;49.892;14.490;2023-09-19T09:23:35;96984.38;;;20.07;70.63
78170;BME280;67412;49.892;14.490;2023-09-19T09:26:00;96986.03;;;20.24;70.22
78170;BME280;67412;49.892;14.490;2023-09-19T09:28:32;96995.72;;;20.52;69.49
78170;BME280;67412;49.892;14.490;2023-09-19T09:30:58;97008.75;;;20.06;68.44
78170;BME280;67412;49.892;14.490;2023-09-19T09:33:24;97000.66;;;19.65;69.10
78170;BME280;67412;49.892;14.490;2023-09-19T09:35:58;97003.19;;;19.51;70.71
78170;BME280;67412;49.892;14.490;2023-09-19T09:38:27;97008.47;;;19.50;71.86
78170;BME280;67412;49.892;14.490;2023-09-19T09:40:54;97012.66;;;19.37;72.21
78170;BME280;67412;49.892;14.490;2023-09-19T09:43:40;97001.19;;;19.23;72.68
78170;BME280;67412;49.892;14.490;2023-09-19T09:46:17;96997.50;;;19.12;72.89
78170;BME280;67412;49.892;14.490;2023-09-19T09:48:59;96999.84;;;19.16;72.59
78170;BME280;67412;49.892;14.490;2023-09-19T09:51:42;96999.19;;;19.28;72.72
78170;BME280;67412;49.892;14.490;2023-09-19T09:54:29;96999.25;;;19.60;71.91
78170;BME280;67412;49.892;14.490;2023-09-19T09:57:08;96995.97;;;19.72;72.26
78170;BME280;67412;49.892;14.490;2023-09-19T09:59:48;96992.16;;;19.93;70.62
78170;BME280;67412;49.892;14.490;2023-09-19T10:02:26;96989.88;;;19.87;69.26
78170;BME280;67412;49.892;14.490;2023-09-19T10:04:55;96996.00;;;20.02;68.33
78170;BME280;67412;49.892;14.490;2023-09-19T10:07:31;96982.97;;;20.02;67.24
78170;BME280;67412;49.892;14.490;2023-09-19T10:10:15;96979.31;;;20.20;67.43
78170;BME280;67412;49.892;14.490;2023-09-19T10:12:47;96985.75;;;20.58;65.11
78170;BME280;67412;49.892;14.490;2023-09-19T10:15:16;96987.34;;;20.75;66.20
78170;BME280;67412;49.892;14.490;2023-09-19T10:17:45;96985.31;;;21.23;63.82
78170;BME280;67412;49.892;14.490;2023-09-19T10:20:17;96999.50;;;21.04;63.70
78170;BME280;67412;49.892;14.490;2023-09-19T10:23:11;97004.13;;;20.85;64.66
78170;BME280;67412;49.892;14.490;2023-09-19T10:25:43;97013.97;;;20.52;65.40
78170;BME280;67412;49.892;14.490;2023-09-19T10:28:11;97004.19;;;20.55;65.20
78170;BME280;67412;49.892;14.490;2023-09-19T10:30:40;97011.25;;;20.83;63.71
78170;BME280;67412;49.892;14.490;2023-09-19T10:33:09;97015.16;;;20.76;63.27
78170;BME280;67412;49.892;14.490;2023-09-19T10:35:38;97011.03;;;20.72;65.67
78170;BME280;67412;49.892;14.490;2023-09-19T10:38:06;97006.78;;;20.99;63.26
78170;BME280;67412;49.892;14.490;2023-09-19T10:40:33;97008.94;;;21.07;63.81
78170;BME280;67412;49.892;14.490;2023-09-19T10:43:03;97012.75;;;20.87;63.40
78170;BME280;67412;49.892;14.490;2023-09-19T10:45:31;97011.97;;;20.85;63.51
78170;BME280;67412;49.892;14.490;2023-09-19T10:47:57;97014.31;;;20.76;64.21
78170;BME280;67412;49.892;14.490;2023-09-19T10:50:23;97013.53;;;20.73;65.43
78170;BME280;67412;49.892;14.490;2023-09-19T10:52:49;97013.47;;;20.75;63.59
78170;BME280;67412;49.892;14.490;2023-09-19T10:55:24;97009.84;;;21.06;63.46
78170;BME280;67412;49.892;14.490;2023-09-19T10:57:50;97013.84;;;20.97;56.60
78170;BME280;67412;49.892;14.490;2023-09-19T11:00:17;97008.16;;;20.33;62.26
78170;BME280;67412;49.892;14.490;2023-09-19T11:05:41;97015.06;;;20.34;58.94
78170;BME280;67412;49.892;14.490;2023-09-19T11:08:08;97022.84;;;20.49;59.55
78170;BME280;67412;49.892;14.490;2023-09-19T11:10:49;97011.97;;;20.71;58.76
78170;BME280;67412;49.892;14.490;2023-09-19T11:13:30;97017.25;;;20.55;58.00
78170;BME280;67412;49.892;14.490;2023-09-19T11:16:04;97002.56;;;20.97;58.33
78170;BME280;67412;49.892;14.490;2023-09-19T11:26:47;96993.03;;;21.52;55.85
78170;BME280;67412;49.892;14.490;2023-09-19T11:29:28;96993.06;;;21.38;56.55
78170;BME280;67412;49.892;14.490;2023-09-19T11:31:54;96997.00;;;21.03;56.87
78170;BME280;67412;49.892;14.490;2023-09-19T11:40:10;96991.38;;;21.37;55.94
78170;BME280;67412;49.892;14.490;2023-09-19T11:42:46;96992.22;;;21.52;55.13
78170;BME280;67412;49.892;14.490;2023-09-19T11:48:15;96987.44;;;21.58;54.43
78170;BME280;67412;49.892;14.490;2023-09-19T11:50:44;96992.31;;;21.77;53.14
78170;BME280;67412;49.892;14.490;2023-09-19T11:53:11;96980.63;;;21.42;53.09
78170;BME280;67412;49.892;14.490;2023-09-19T11:55:38;96992.19;;;20.81;54.93
78170;BME280;67412;49.892;14.490;2023-09-19T11:58:07;97007.66;;;20.56;55.51
78170;BME280;67412;49.892;14.490;2023-09-19T12:00:37;96991.84;;;20.87;54.09
78170;BME280;67412;49.892;14.490;2023-09-19T12:03:12;96988.44;;;21.70;54.85
78170;BME280;67412;49.892;14.490;2023-09-19T12:05:39;96987.38;;;21.73;52.25
78170;BME280;67412;49.892;14.490;2023-09-19T12:08:05;96991.03;;;21.70;51.74
78170;BME280;67412;49.892;14.490;2023-09-19T12:10:55;96983.22;;;21.83;52.69
78170;BME280;67412;49.892;14.490;2023-09-19T12:13:21;96995.97;;;22.15;53.12
78170;BME280;67412;49.892;14.490;2023-09-19T12:15:46;96990.47;;;22.06;50.71
78170;BME280;67412;49.892;14.490;2023-09-19T12:18:27;96998.72;;;22.00;49.57
78170;BME280;67412;49.892;14.490;2023-09-19T12:20:53;96989.88;;;22.15;50.26
78170;BME280;67412;49.892;14.490;2023-09-19T12:23:19;96986.81;;;22.48;50.24
78170;BME280;67412;49.892;14.490;2023-09-19T12:25:46;96993.09;;;22.45;48.82
78170;BME280;67412;49.892;14.490;2023-09-19T12:28:13;96996.19;;;22.25;47.27
78170;BME280;67412;49.892;14.490;2023-09-19T12:30:39;96988.56;;;22.47;47.93
78170;BME280;67412;49.892;14.490;2023-09-19T12:33:17;96985.69;;;22.77;47.61
78170;BME280;67412;49.892;14.490;2023-09-19T12:35:44;96976.47;;;22.84;46.98
78170;BME280;67412;49.892;14.490;2023-09-19T12:38:10;96982.47;;;22.86;46.82
78170;BME280;67412;49.892;14.490;2023-09-19T12:40:37;96971.44;;;22.69;44.98
78170;BME280;67412;49.892;14.490;2023-09-19T12:43:03;96972.91;;;22.73;45.34
78170;BME280;67412;49.892;14.490;2023-09-19T12:45:31;96980.91;;;22.71;45.50
78170;BME280;67412;49.892;14.490;2023-09-19T12:53:43;96972.50;;;22.91;42.12
78170;BME280;67412;49.892;14.490;2023-09-19T12:56:11;96969.88;;;22.91;41.95
78170;BME280;67412;49.892;14.490;2023-09-19T13:01:22;96966.28;;;22.42;41.56
78170;BME280;67412;49.892;14.490;2023-09-19T13:04:10;96975.72;;;22.57;40.68
78170;BME280;67412;49.892;14.490;2023-09-19T13:06:37;96971.94;;;22.61;40.23
78170;BME280;67412;49.892;14.490;2023-09-19T13:09:10;96979.16;;;22.45;40.99
78170;BME280;67412;49.892;14.490;2023-09-19T13:11:37;96970.00;;;22.25;40.24
78170;BME280;67412;49.892;14.490;2023-09-19T13:14:26;96966.25;;;22.29;40.28
78170;BME280;67412;49.892;14.490;2023-09-19T13:17:09;96962.28;;;22.36;41.90
78170;BME280;67412;49.892;14.490;2023-09-19T13:19:49;96969.84;;;22.66;42.16
78170;BME280;67412;49.892;14.490;2023-09-19T13:22:43;96961.06;;;22.67;42.44
78170;BME280;67412;49.892;14.490;2023-09-19T13:25:17;96962.59;;;22.32;42.80
78170;BME280;67412;49.892;14.490;2023-09-19T13:27:50;96963.00;;;22.38;43.54
78170;BME280;67412;49.892;14.490;2023-09-19T13:30:22;96963.00;;;22.26;44.69
78170;BME280;67412;49.892;14.490;2023-09-19T13:32:48;96966.31;;;21.88;45.32
78170;BME280;67412;49.892;14.490;2023-09-19T13:35:16;96969.03;;;21.87;44.77
78170;BME280;67412;49.892;14.490;2023-09-19T13:37:42;96957.59;;;22.02;45.02